الصفحة الرئيسية
METAR-TAF:

METAR-TAF

مطار :

إيلام, إيران

دائرة عرض: 33-35-09N, خط طول: 046-24-20E, ارتفاع: 1334 متر

مراقبة الطقس الحالي

تاريخ ووقت الإصدار 1ساعة و 21 دقيقة قبل الساعة 02:00UTC
ريح 4 عقدة من الشمال
درجة الحرارة 29°درجة مئوية
الرطوبة 14%
ضغط 1016 hPa
الرؤية 10 كم أو أكثر
الغيوم لا تقل 1500 م ولا وجود لمزنة ركامية السحاب الأسود

METAR: OICI 190200Z 01004KT CAVOK 29/M01 Q1015 A2999

زمن: 07:51 (03:21 UTC)

توقعات

تاريخ ووقت الإصدار 4ساعات و 21 دقيقة قبل الساعة 23:00UTC
التوقعات صالحة من19 الساعة 00 UTC إلى 20 الساعة 06 UTC
ريح 7 عقدة من الشمال الغربي
الرؤية: 8000 متر
مؤقت
من 19 الساعة 09 UTC إلى 19 الساعة 17 UTC
ريح 15 عقدة من الشمال الغربي

TAF: OICI 182300Z 1900/2006 31007KT 8000 NSC TEMPO 1909/1917 31015KT

أرصاد الطقس والتوقعات من أكثر من 4000 مطار (تقارير الطقس للمطار METAR والتنبؤ بالطقس بالمطارTAF).

المحطات المتاحة هي النقط الصفراء والحمراء على الخريطة.

حرك المؤشر فوق النقطة لمعرفة اسم المحطة.

ثم انقر لمعرفة أرصاد وتوقعات الطقس.

لتغيير الخارطة: اضغط على الأزرار الخضراء مع رمز الصليب الأسود للتكبير. على الزر الأخضر مع شرطة للتصغير، أو على الأسهم الخضراء للخرائط المجاورة.


METAR-TAF: